R/v Savannah — WDA5407 — position and weather

sailwx.info

Track history (hours):
 
Tides and Currents Weather Stations Pressure Air Temp Water Temp Dewpoint Dewpoint Depression Visibility Wind Speed Wind Dir Waves Ship Positions

R/v Savannah

Owner: SKIDAWAY INSTITUTE OF OCEANOGRAPHY, SAVANNAH, GA. More information available from US FCC via Universal Licensing System.

Last reported at 2018-Apr-19 14:15 UTC. Time now 2018-Apr-23 07:29 UTC.
Position N 31°59' W 081°01'.

Length 30 m; draft 2.4 m.

Type: Dredging. MMSI: 303117000.

Date/timePositionNaut miles runAvg speedWind from/ knotsBaromVisibWave heightAir tempDewpointWater temp
2018-Apr-19 14:15N 31°59' W 081°01'0 1.7
2018-Apr-19 14:00N 31°60' W 081°01'2 4.6
2018-Apr-19 13:30N 31°58' W 081°00'5 9.6
2018-Apr-19 13:00N 31°55' W 080°56'4 7.3
2018-Apr-19 12:30N 31°52' W 080°54'5 7.6
2018-Apr-19 11:51N 31°54' W 080°49'3 8.6
2018-Apr-19 11:29N 31°56' W 080°46'4 8.4
2018-Apr-19 11:00N 31°59' W 080°43'4 8.5
2018-Apr-19 10:30N 32°02' W 080°39'60 7.5
2018-Apr-19 02:24N 32°42' W 079°45'3 7.1
2018-Apr-19 02:00N 32°43' W 079°42'4 7.1
2018-Apr-19 01:27N 32°46' W 079°39'2 3.8
2018-Apr-19 00:58N 32°47' W 079°37'71 2.2
2018-Apr-17 16:11N 32°00' W 080°40'2 9.4
2018-Apr-17 15:55N 31°59' W 080°42'4 8.7
2018-Apr-17 15:26N 31°60' W 080°47'4 9.3
2018-Apr-17 15:00N 32°02' W 080°51'4 8.5
2018-Apr-17 14:29N 32°03' W 080°56'3 6.3
2018-Apr-17 14:00N 32°04' W 080°59'3 5.2
2018-Apr-17 13:30N 32°03' W 081°02'2 4.8
2018-Apr-17 13:00N 32°01' W 081°01'0 0.7
2018-Apr-17 12:30N 32°00' W 081°01'  
2018-Apr-14 14:03N 31°59' W 081°01'0 0.1
2018-Apr-14 13:59N 31°59' W 081°01'1 2.4
2018-Apr-14 13:30N 31°60' W 081°00'3 6.6
2018-Apr-14 13:00N 31°57' W 080°59'4 7.9
2018-Apr-14 12:28N 31°54' W 080°55'1 0.0
2018-Apr-12 14:35N 31°53' W 080°54'1 7.9
2018-Apr-12 14:26N 31°54' W 080°54'3 7.2
2018-Apr-12 13:58N 31°56' W 080°58'4 8.1
2018-Apr-12 13:28N 31°59' W 081°00'1 2.4
2018-Apr-12 13:00N 31°59' W 081°01'  
Track history (hours):
 
Tides and Currents Weather Stations Pressure Air Temp Water Temp Dewpoint Dewpoint Depression Visibility Wind Speed Wind Dir Waves Ship Positions

R/v Savannah

Owner: SKIDAWAY INSTITUTE OF OCEANOGRAPHY, SAVANNAH, GA. More information available from US FCC via Universal Licensing System.

Last reported at 2018-Apr-19 14:15 UTC. Time now 2018-Apr-23 07:29 UTC.
Position N 31°59' W 081°01'.

Length 30 m; draft 2.4 m.

Type: Dredging. MMSI: 303117000.

Date/timePositionNaut miles runAvg speedWind from/ knotsBaromVisibWave heightAir tempDewpointWater temp
2018-Apr-19 14:15N 31°59' W 081°01'0 1.7
2018-Apr-19 14:00N 31°60' W 081°01'2 4.6
2018-Apr-19 13:30N 31°58' W 081°00'5 9.6
2018-Apr-19 13:00N 31°55' W 080°56'4 7.3
2018-Apr-19 12:30N 31°52' W 080°54'5 7.6
2018-Apr-19 11:51N 31°54' W 080°49'3 8.6
2018-Apr-19 11:29N 31°56' W 080°46'4 8.4
2018-Apr-19 11:00N 31°59' W 080°43'4 8.5
2018-Apr-19 10:30N 32°02' W 080°39'60 7.5
2018-Apr-19 02:24N 32°42' W 079°45'3 7.1
2018-Apr-19 02:00N 32°43' W 079°42'4 7.1
2018-Apr-19 01:27N 32°46' W 079°39'2 3.8
2018-Apr-19 00:58N 32°47' W 079°37'71 2.2
2018-Apr-17 16:11N 32°00' W 080°40'2 9.4
2018-Apr-17 15:55N 31°59' W 080°42'4 8.7
2018-Apr-17 15:26N 31°60' W 080°47'4 9.3
2018-Apr-17 15:00N 32°02' W 080°51'4 8.5
2018-Apr-17 14:29N 32°03' W 080°56'3 6.3
2018-Apr-17 14:00N 32°04' W 080°59'3 5.2
2018-Apr-17 13:30N 32°03' W 081°02'2 4.8
2018-Apr-17 13:00N 32°01' W 081°01'0 0.7
2018-Apr-17 12:30N 32°00' W 081°01'  
2018-Apr-14 14:03N 31°59' W 081°01'0 0.1
2018-Apr-14 13:59N 31°59' W 081°01'1 2.4
2018-Apr-14 13:30N 31°60' W 081°00'3 6.6
2018-Apr-14 13:00N 31°57' W 080°59'4 7.9
2018-Apr-14 12:28N 31°54' W 080°55'1 0.0
2018-Apr-12 14:35N 31°53' W 080°54'1 7.9
2018-Apr-12 14:26N 31°54' W 080°54'3 7.2
2018-Apr-12 13:58N 31°56' W 080°58'4 8.1
2018-Apr-12 13:28N 31°59' W 081°00'1 2.4
2018-Apr-12 13:00N 31°59' W 081°01'  

Dump ship's entire track history